createdAt,value
2018-01-01T14:50:29.343Z,22.27
2018-01-01T15:05:06.594Z,15.07
2018-01-01T15:06:06.552Z,9.65
2018-01-01T15:08:01.111Z,5.36
2018-01-01T15:09:01.012Z,4.48
2018-01-01T15:10:56.538Z,3.58
2018-01-01T15:11:56.493Z,3.33
2018-01-01T15:13:50.968Z,3.05
2018-01-01T15:14:50.968Z,3.05
2018-01-01T15:16:45.451Z,3.00
2018-01-01T15:17:45.424Z,2.92
2018-01-01T15:19:39.906Z,2.96
2018-01-01T15:20:39.912Z,2.92
2018-01-01T15:22:34.441Z,2.92
2018-01-01T15:23:34.376Z,2.96
2018-01-01T15:25:28.850Z,2.92
2018-01-01T15:26:28.829Z,2.92
2018-01-01T15:28:23.340Z,2.92
2018-01-01T15:29:23.282Z,2.79
2018-01-01T15:31:17.737Z,2.85
2018-01-01T15:32:17.751Z,2.81
2018-01-01T15:34:12.217Z,2.77
2018-01-01T15:35:12.237Z,2.75
2018-01-01T15:37:06.684Z,2.67
2018-01-01T15:38:06.672Z,2.74
2018-01-01T15:40:01.129Z,2.72
2018-01-01T15:41:01.106Z,2.72
2018-01-01T15:42:55.569Z,2.67
2018-01-01T15:43:55.568Z,2.77
2018-01-01T15:45:49.054Z,2.71
2018-01-01T15:46:49.036Z,2.72
2018-01-01T15:48:42.497Z,2.67
2018-01-01T15:49:42.475Z,2.75
2018-01-01T15:51:36.014Z,2.64
2018-01-01T15:52:35.941Z,2.75
2018-01-01T15:54:29.423Z,2.75
2018-01-01T15:55:29.431Z,2.72
2018-01-01T15:57:23.971Z,2.67
2018-01-01T15:58:23.910Z,2.72
2018-01-01T16:00:17.368Z,2.69
2018-01-01T16:01:17.354Z,2.61
2018-01-01T16:03:11.851Z,2.78
2018-01-01T16:04:11.790Z,2.79
2018-01-01T16:06:06.236Z,2.66
2018-01-01T16:07:06.248Z,2.66
2018-01-01T16:08:59.739Z,2.74
2018-01-01T16:09:59.765Z,2.71
2018-01-01T16:11:54.239Z,2.72
2018-01-01T16:12:54.128Z,2.66
2018-01-01T16:14:49.603Z,2.66
2018-01-01T16:15:49.682Z,2.63
2018-01-01T16:17:44.159Z,2.75
2018-01-01T16:18:44.029Z,2.75
2018-01-01T16:20:37.480Z,2.71
2018-01-01T16:21:37.517Z,2.69
2018-01-01T16:23:31.952Z,2.71
2018-01-01T16:24:31.937Z,2.71
2018-01-01T16:26:25.458Z,2.72
2018-01-01T16:27:25.446Z,2.72
2018-01-01T16:29:20.850Z,2.71
2018-01-01T16:30:20.825Z,2.67
2018-01-01T16:32:14.340Z,2.63
2018-01-01T16:33:14.341Z,2.63
2018-01-01T16:35:07.738Z,2.71
2018-01-01T16:36:07.724Z,2.57
2018-01-01T16:38:02.232Z,2.63
2018-01-01T16:39:02.189Z,2.61
2018-01-01T16:40:56.819Z,2.60
2018-01-01T16:41:56.631Z,2.60
2018-01-01T16:42:56.611Z,2.63
2018-01-01T16:43:56.595Z,2.57
2018-01-01T16:44:56.575Z,2.64
2018-01-01T16:45:56.588Z,2.64
2018-01-01T16:46:56.678Z,2.64
2018-01-01T16:47:56.704Z,2.59
2018-01-01T16:48:56.682Z,2.64
2018-01-01T16:49:56.663Z,2.64
2018-01-01T16:50:56.511Z,2.64
2018-01-01T16:51:56.510Z,2.61
2018-01-01T16:52:56.952Z,2.53
2018-01-01T16:53:56.498Z,2.60
2018-01-01T16:54:56.488Z,2.53
2018-01-01T16:55:56.478Z,2.61
2018-01-01T16:56:56.450Z,2.56
2018-01-01T16:57:56.435Z,2.59
2018-01-01T16:58:56.469Z,2.52
2018-01-01T16:59:56.569Z,2.53
2018-01-01T17:00:56.412Z,2.54
2018-01-01T17:01:56.403Z,2.57
2018-01-01T17:02:56.405Z,2.59
2018-01-01T17:03:56.624Z,2.48
2018-01-01T17:04:56.364Z,2.57
2018-01-01T17:05:56.367Z,2.49
2018-01-01T17:06:56.340Z,2.57
2018-01-01T17:07:56.345Z,2.57
2018-01-01T17:08:56.323Z,2.57
2018-01-01T17:09:56.339Z,2.57
2018-01-01T17:10:56.311Z,2.53
2018-01-01T17:11:56.307Z,2.52
2018-01-01T17:12:56.267Z,2.53
2018-01-01T17:13:56.267Z,2.46
2018-01-01T17:14:56.256Z,2.46
2018-01-01T17:15:56.265Z,2.56
2018-01-01T17:16:56.273Z,2.49
2018-01-01T17:17:56.201Z,2.48
2018-01-01T17:18:56.217Z,2.45
2018-01-01T17:19:56.219Z,2.43
2018-01-01T17:20:56.167Z,2.42
2018-01-01T17:21:56.289Z,2.41
2018-01-01T17:22:56.178Z,2.52
2018-01-01T17:23:56.154Z,2.45
2018-01-01T17:24:56.221Z,2.43
2018-01-01T17:25:56.114Z,2.38
2018-01-01T17:26:56.138Z,2.52
2018-01-01T17:27:56.109Z,2.45
2018-01-01T17:28:56.097Z,2.49
2018-01-01T17:29:56.098Z,2.52
2018-01-01T17:30:56.192Z,2.48
2018-01-01T17:31:56.052Z,2.45
2018-01-01T17:32:56.040Z,2.45
2018-01-01T17:33:56.057Z,2.42
2018-01-01T17:34:56.065Z,2.48
2018-01-01T17:35:56.018Z,2.42
2018-01-01T17:36:56.000Z,2.46
2018-01-01T17:37:55.996Z,2.42
2018-01-01T17:38:56.019Z,2.41
2018-01-01T17:39:55.966Z,2.53
2018-01-01T17:40:55.977Z,2.46
2018-01-01T17:41:55.979Z,2.43
2018-01-01T17:42:55.939Z,2.49
2018-01-01T17:43:55.956Z,2.42
2018-01-01T17:44:55.938Z,2.46
2018-01-01T17:45:55.943Z,2.48
2018-01-01T17:46:55.964Z,2.42
2018-01-01T17:47:56.106Z,2.43
2018-01-01T17:48:55.897Z,2.48
2018-01-01T17:49:55.900Z,2.42
2018-01-01T17:50:55.857Z,2.48
2018-01-01T17:51:55.831Z,2.36
2018-01-01T17:52:55.830Z,2.41
2018-01-01T17:53:55.819Z,2.48
2018-01-01T17:54:55.817Z,2.52
2018-01-01T17:55:55.788Z,2.43
2018-01-01T17:56:55.818Z,2.48
2018-01-01T17:57:55.768Z,2.43
2018-01-01T17:58:55.778Z,2.43
2018-01-01T17:59:55.785Z,2.45
2018-01-01T18:00:55.773Z,2.49
2018-01-01T18:01:55.738Z,2.34
2018-01-01T18:02:55.786Z,2.43
2018-01-01T18:03:55.702Z,2.48
2018-01-01T18:04:55.697Z,2.49
2018-01-01T18:05:55.680Z,2.46
2018-01-01T18:06:55.704Z,2.45
2018-01-01T18:07:55.732Z,2.45
2018-01-01T18:08:55.647Z,2.41
2018-01-01T18:09:55.662Z,2.45
2018-01-01T18:10:55.659Z,2.45
2018-01-01T18:11:55.659Z,2.35
2018-01-01T18:12:55.626Z,2.43
2018-01-01T18:13:55.591Z,2.36
2018-01-01T18:14:55.620Z,2.45
2018-01-01T18:15:55.582Z,2.39
2018-01-01T18:16:55.584Z,2.52
2018-01-01T18:17:55.579Z,2.38
2018-01-01T18:18:55.537Z,2.45
2018-01-01T18:19:55.525Z,2.46
2018-01-01T18:20:55.549Z,2.41
2018-01-01T18:21:55.548Z,2.41
2018-01-01T18:22:55.496Z,2.45
2018-01-01T18:23:55.557Z,2.35
2018-01-01T18:24:55.498Z,2.45
2018-01-01T18:25:55.461Z,2.28
2018-01-01T18:26:55.447Z,2.43
2018-01-01T18:27:55.459Z,2.42
2018-01-01T18:28:55.489Z,2.45
2018-01-01T18:29:55.458Z,2.42
2018-01-01T18:30:55.406Z,2.48
2018-01-01T18:31:55.419Z,2.48
2018-01-01T18:32:55.426Z,2.41
2018-01-01T18:33:55.439Z,2.46
2018-01-01T18:34:55.449Z,2.43
2018-01-01T18:35:55.384Z,2.38
2018-01-01T18:36:55.341Z,2.43
2018-01-01T18:37:55.329Z,2.45
2018-01-01T18:38:55.361Z,2.53
2018-01-01T18:39:55.338Z,2.45
2018-01-01T18:40:55.367Z,2.43
2018-01-01T18:41:55.297Z,2.39
2018-01-01T18:42:55.297Z,2.42
2018-01-01T18:43:55.386Z,2.34
2018-01-01T18:44:55.258Z,2.39
2018-01-01T18:45:55.258Z,2.38
2018-01-01T18:46:55.257Z,2.35
2018-01-01T18:47:55.218Z,2.45
2018-01-01T18:48:55.211Z,2.41
2018-01-01T18:49:55.198Z,2.41
2018-01-01T18:50:55.219Z,2.48
2018-01-01T18:51:55.219Z,2.48
2018-01-01T18:52:55.163Z,2.36
2018-01-01T18:53:55.178Z,2.42
2018-01-01T18:54:55.183Z,2.49
2018-01-01T18:55:55.130Z,2.48
2018-01-01T18:56:55.142Z,2.46
2018-01-01T18:57:55.138Z,2.41
2018-01-01T18:58:55.148Z,2.41
2018-01-01T18:59:55.098Z,2.52
2018-01-01T19:00:55.079Z,2.49
2018-01-01T19:01:55.064Z,2.52
2018-01-01T19:02:55.099Z,2.42
2018-01-01T19:03:55.044Z,2.49
2018-01-01T19:04:55.057Z,2.48
2018-01-01T19:05:55.058Z,2.45
2018-01-01T19:06:55.020Z,2.49
2018-01-01T19:07:55.018Z,2.56
2018-01-01T19:08:54.990Z,2.48
2018-01-01T19:09:55.018Z,2.54
2018-01-01T19:10:54.978Z,2.48
2018-01-01T19:11:54.954Z,2.52
2018-01-01T19:12:54.978Z,2.46
2018-01-01T19:13:54.978Z,2.57
2018-01-01T19:14:54.941Z,2.52
2018-01-01T19:15:54.946Z,2.49
2018-01-01T19:16:54.905Z,2.52
2018-01-01T19:17:54.889Z,2.52
2018-01-01T19:18:54.898Z,2.43
2018-01-01T19:19:54.870Z,2.56
2018-01-01T19:20:54.857Z,2.53
2018-01-01T19:21:54.858Z,2.52
2018-01-01T19:22:54.858Z,2.54
2018-01-01T19:23:54.858Z,2.54
2018-01-01T19:24:54.813Z,2.52
2018-01-01T19:25:54.820Z,2.49
2018-01-01T19:26:54.791Z,2.52
2018-01-01T19:27:54.781Z,2.49
2018-01-01T19:28:54.801Z,2.52
2018-01-01T19:29:54.788Z,2.54
2018-01-01T19:30:54.746Z,2.56
2018-01-01T19:31:54.735Z,2.56
2018-01-01T19:32:54.736Z,2.56
2018-01-01T19:33:54.737Z,2.52
2018-01-01T19:34:54.712Z,2.57
2018-01-01T19:35:54.739Z,2.56
2018-01-01T19:36:54.681Z,2.54
2018-01-01T19:37:54.698Z,2.61
2018-01-01T19:38:54.808Z,2.56
2018-01-01T19:39:54.651Z,2.53
2018-01-01T19:40:54.661Z,2.57
2018-01-01T19:41:54.660Z,2.54
2018-01-01T19:42:54.659Z,2.59
2018-01-01T19:43:54.614Z,2.56
2018-01-01T19:44:54.598Z,2.53
2018-01-01T19:45:54.591Z,2.52
2018-01-01T19:46:54.617Z,2.53
2018-01-01T19:47:54.563Z,2.54
2018-01-01T19:48:54.549Z,2.52
2018-01-01T19:49:54.579Z,2.54
2018-01-01T19:50:54.537Z,2.59
2018-01-01T19:51:54.544Z,2.54
2018-01-01T19:52:54.538Z,2.53
2018-01-01T19:53:54.504Z,2.53
2018-01-01T19:54:54.498Z,2.57
2018-01-01T19:55:54.476Z,2.56
2018-01-01T19:56:54.463Z,2.53
2018-01-01T19:57:54.500Z,2.64
2018-01-01T19:58:54.458Z,2.63
2018-01-01T19:59:54.482Z,2.61
2018-01-01T20:00:54.419Z,2.57
2018-01-01T20:01:54.574Z,2.60
2018-01-01T20:02:54.418Z,2.60
2018-01-01T20:03:54.421Z,2.63
2018-01-01T20:04:54.419Z,2.63
2018-01-01T20:05:54.369Z,2.61
2018-01-01T20:06:54.352Z,2.64
2018-01-01T20:07:54.341Z,2.63
2018-01-01T20:08:54.331Z,2.61
2018-01-01T20:09:54.342Z,2.63
2018-01-01T20:10:54.309Z,2.61
2018-01-01T20:11:54.300Z,2.56
2018-01-01T20:12:54.295Z,2.67
2018-01-01T20:13:54.279Z,2.61
2018-01-01T20:14:54.298Z,2.66
2018-01-01T20:15:54.298Z,2.63
2018-01-01T20:16:54.244Z,2.57
2018-01-01T20:17:54.234Z,2.69
2018-01-01T20:18:54.258Z,2.72
2018-01-01T20:19:54.218Z,2.63
2018-01-01T20:20:54.202Z,2.67
2018-01-01T20:21:54.218Z,2.61
2018-01-01T20:22:54.177Z,2.57
2018-01-01T20:23:54.178Z,2.71
2018-01-01T20:24:54.180Z,2.75
2018-01-01T20:25:54.177Z,2.74
2018-01-01T20:26:54.178Z,2.77
2018-01-01T20:27:54.146Z,2.72
2018-01-01T20:28:54.138Z,2.74
2018-01-01T20:29:54.137Z,2.71
2018-01-01T20:30:54.097Z,2.69
2018-01-01T20:31:54.100Z,2.71
2018-01-01T20:32:54.097Z,2.75
2018-01-01T20:33:54.072Z,2.77
2018-01-01T20:34:54.082Z,2.77
2018-01-01T20:35:54.062Z,2.72
2018-01-01T20:36:54.049Z,2.74
2018-01-01T20:37:54.062Z,2.69
2018-01-01T20:38:54.017Z,2.71
2018-01-01T20:39:54.019Z,2.72
2018-01-01T20:40:54.017Z,2.75
2018-01-01T20:41:53.977Z,2.77
2018-01-01T20:42:53.985Z,2.77
2018-01-01T20:43:53.977Z,2.81
2018-01-01T20:44:53.979Z,2.87
2018-01-01T20:45:53.944Z,2.84
2018-01-01T20:46:53.937Z,2.79
2018-01-01T20:47:53.937Z,2.81
2018-01-01T20:48:53.943Z,2.84
2018-01-01T20:49:53.898Z,2.79
2018-01-01T20:50:53.897Z,2.90
2018-01-01T20:51:53.945Z,2.77
2018-01-01T20:52:53.941Z,2.82
2018-01-01T20:53:53.924Z,2.93
2018-01-01T20:54:53.914Z,2.87
2018-01-01T20:55:53.832Z,2.78
2018-01-01T20:56:53.885Z,2.92
2018-01-01T20:57:53.879Z,2.81
2018-01-01T20:58:53.863Z,2.90
2018-01-01T20:59:53.905Z,2.89
2018-01-01T21:00:53.848Z,2.89
2018-01-01T21:01:53.838Z,2.89
2018-01-01T21:02:53.752Z,2.87
2018-01-01T21:03:53.744Z,2.85
2018-01-01T21:04:53.738Z,2.90
2018-01-01T21:05:53.800Z,2.85
2018-01-01T21:06:53.780Z,2.90
2018-01-01T21:07:53.769Z,2.93
2018-01-01T21:08:53.761Z,3.00
2018-01-01T21:09:53.748Z,2.93
2018-01-01T21:10:53.739Z,2.89
2018-01-01T21:11:53.732Z,2.96
2018-01-01T21:12:53.717Z,2.92
2018-01-01T21:13:53.712Z,2.92
2018-01-01T21:14:53.701Z,2.97
2018-01-01T21:15:53.698Z,2.97
2018-01-01T21:16:53.684Z,2.97
2018-01-01T21:17:53.660Z,3.02
2018-01-01T21:18:53.649Z,2.97
2018-01-01T21:19:53.638Z,2.99
2018-01-01T21:20:53.625Z,2.99
2018-01-01T21:21:53.618Z,3.06
2018-01-01T21:22:53.602Z,3.00
2018-01-01T21:23:53.597Z,2.99
2018-01-01T21:24:53.592Z,2.99
2018-01-01T21:25:53.581Z,3.06
2018-01-01T21:26:53.571Z,3.00
2018-01-01T21:27:53.553Z,3.11
2018-01-01T21:28:53.544Z,3.06
2018-01-01T21:29:53.526Z,3.06
2018-01-01T21:30:53.517Z,3.06
2018-01-01T21:31:53.510Z,3.05
2018-01-01T21:32:53.498Z,3.08
2018-01-01T21:33:53.485Z,3.06
2018-01-01T21:34:53.401Z,3.08
2018-01-01T21:35:53.613Z,3.17
2018-01-01T21:36:53.407Z,3.21
2018-01-01T21:37:53.449Z,3.10
2018-01-01T21:38:53.436Z,3.15
2018-01-01T21:39:53.427Z,3.15
2018-01-01T21:40:53.348Z,3.21
2018-01-01T21:41:53.400Z,3.17
2018-01-01T21:42:53.390Z,3.23
2018-01-01T21:43:53.380Z,3.15
2018-01-01T21:44:53.373Z,3.26
2018-01-01T21:45:53.362Z,3.24
2018-01-01T21:46:53.343Z,3.31
2018-01-01T21:47:53.334Z,3.24
2018-01-01T21:48:53.329Z,3.29
2018-01-01T21:49:53.315Z,3.21
2018-01-01T21:50:53.303Z,3.36
2018-01-01T21:51:53.285Z,3.35
2018-01-01T21:52:53.288Z,3.35
2018-01-01T21:53:53.270Z,3.35
2018-01-01T21:54:53.262Z,3.29
2018-01-01T21:55:53.243Z,3.33
2018-01-01T21:56:53.236Z,3.35
2018-01-01T21:57:53.224Z,3.39
2018-01-01T21:58:53.220Z,3.39
2018-01-01T21:59:53.205Z,3.55
2018-01-01T22:00:53.236Z,3.45
2018-01-01T22:01:53.187Z,3.47
2018-01-01T22:02:53.175Z,3.48
2018-01-01T22:03:53.103Z,3.54
2018-01-01T22:04:53.150Z,3.54
2018-01-01T22:05:53.140Z,3.51
2018-01-01T22:06:53.127Z,3.51
2018-01-01T22:07:53.119Z,3.57
2018-01-01T22:08:53.069Z,3.54
2018-01-01T22:09:53.030Z,3.54
2018-01-01T22:10:53.029Z,3.61
2018-01-01T22:11:52.990Z,3.61
2018-01-01T22:12:52.991Z,3.65
2018-01-01T22:13:52.989Z,3.65
2018-01-01T22:14:53.109Z,3.62
2018-01-01T22:15:52.989Z,3.68
2018-01-01T22:16:52.949Z,3.62
2018-01-01T22:17:52.948Z,3.60
2018-01-01T22:18:52.949Z,3.68
2018-01-01T22:19:52.950Z,3.70
2018-01-01T22:20:52.909Z,4.04
2018-01-01T22:21:52.909Z,4.51
2018-01-01T22:22:52.909Z,5.03
2018-01-01T22:23:52.869Z,5.30
2018-01-01T22:24:52.852Z,5.33
2018-01-01T22:25:52.840Z,5.68
2018-01-01T22:26:52.914Z,5.78
2018-01-01T22:27:52.833Z,5.67
2018-01-01T22:28:52.932Z,5.65
2018-01-01T22:29:52.798Z,5.54
2018-01-01T22:30:52.799Z,5.24
2018-01-01T22:31:52.846Z,5.13
2018-01-01T22:32:52.795Z,5.13
2018-01-01T22:33:52.793Z,4.88
2018-01-01T22:34:52.753Z,4.82
2018-01-01T22:35:52.753Z,4.88
2018-01-01T22:36:52.754Z,4.85
2018-01-01T22:37:52.752Z,4.78
2018-01-01T22:38:52.713Z,4.72
2018-01-01T22:39:52.702Z,4.70
2018-01-01T22:40:52.715Z,4.58
2018-01-01T22:41:52.712Z,4.51
2018-01-01T22:42:52.673Z,4.47
2018-01-01T22:43:52.672Z,4.47
2018-01-01T22:44:52.674Z,4.52
2018-01-01T22:45:52.672Z,4.45
2018-01-01T22:46:52.633Z,4.40
2018-01-01T22:47:52.633Z,4.41
2018-01-01T22:48:52.632Z,4.40
2018-01-01T22:49:52.632Z,4.30
2018-01-01T22:50:52.595Z,4.32
2018-01-01T22:51:52.593Z,4.33
2018-01-01T22:52:52.593Z,4.27
2018-01-01T22:53:52.594Z,4.32
2018-01-01T22:54:52.552Z,4.34
2018-01-01T22:55:52.553Z,4.29
2018-01-01T22:56:52.553Z,4.22
2018-01-01T22:57:52.552Z,4.33
2018-01-01T22:58:52.513Z,4.23
2018-01-01T22:59:52.513Z,4.29
2018-01-01T23:00:52.513Z,4.22
2018-01-01T23:01:52.472Z,4.27
2018-01-01T23:02:52.473Z,4.24
2018-01-01T23:03:52.473Z,4.15
2018-01-01T23:04:52.438Z,4.14
2018-01-01T23:05:52.492Z,4.20
2018-01-01T23:06:52.448Z,4.18
2018-01-01T23:07:52.442Z,4.26
2018-01-01T23:08:52.443Z,4.20
2018-01-01T23:09:52.429Z,4.14
2018-01-01T23:10:52.430Z,4.15
2018-01-01T23:11:52.389Z,4.11
2018-01-01T23:12:52.375Z,4.15
2018-01-01T23:13:52.505Z,4.12
2018-01-01T23:14:52.349Z,4.22
2018-01-01T23:15:52.393Z,4.14
2018-01-01T23:16:52.398Z,4.20
2018-01-01T23:17:52.350Z,4.16
2018-01-01T23:18:52.316Z,4.20
2018-01-01T23:19:52.402Z,4.20
2018-01-01T23:20:52.337Z,4.15
2018-01-01T23:21:52.277Z,4.15
2018-01-01T23:22:52.486Z,4.11
2018-01-01T23:23:52.270Z,4.14
2018-01-01T23:24:52.272Z,4.15
2018-01-01T23:25:52.285Z,4.12
2018-01-01T23:26:52.225Z,4.20
2018-01-01T23:27:52.230Z,4.11
2018-01-01T23:28:52.238Z,4.12
2018-01-01T23:29:52.197Z,4.15
2018-01-01T23:30:52.244Z,4.12
2018-01-01T23:31:52.196Z,4.09
2018-01-01T23:32:52.197Z,4.11
2018-01-01T23:33:52.190Z,4.15
2018-01-01T23:34:52.162Z,4.08
2018-01-01T23:35:52.132Z,4.12
2018-01-01T23:36:52.122Z,4.11
2018-01-01T23:37:52.168Z,4.16
2018-01-01T23:38:52.118Z,4.12
2018-01-01T23:39:52.118Z,4.11
2018-01-01T23:40:52.111Z,4.14
2018-01-01T23:41:52.109Z,4.14
2018-01-01T23:42:52.077Z,4.16
2018-01-01T23:43:52.078Z,4.14
2018-01-01T23:44:52.039Z,4.14
2018-01-01T23:45:52.047Z,4.14
2018-01-01T23:46:52.039Z,4.12
2018-01-01T23:47:52.039Z,4.08
2018-01-01T23:48:52.030Z,4.09
2018-01-01T23:49:51.994Z,4.08
2018-01-01T23:50:51.990Z,4.12
2018-01-01T23:51:51.998Z,4.09
2018-01-01T23:52:52.012Z,4.14
2018-01-01T23:53:52.024Z,4.12
2018-01-01T23:54:51.960Z,4.11
2018-01-01T23:55:51.958Z,4.12
2018-01-01T23:56:51.948Z,4.06
2018-01-01T23:57:52.130Z,4.08
2018-01-01T23:58:51.931Z,4.06
2018-01-01T23:59:51.910Z,4.11
